sensor_id;sensor_type;location;lat;lon;timestamp;temperature;humidity
17599;DHT22;8918;52.092;5.232;2023-04-03T00:01:07;4.80;99.90
17599;DHT22;8918;52.092;5.232;2023-04-03T00:03:33;4.80;99.90
17599;DHT22;8918;52.092;5.232;2023-04-03T00:06:00;4.80;99.90
17599;DHT22;8918;52.092;5.232;2023-04-03T00:08:26;4.70;99.90
17599;DHT22;8918;52.092;5.232;2023-04-03T00:10:51;4.70;99.90
17599;DHT22;8918;52.092;5.232;2023-04-03T00:13:17;4.70;99.90
17599;DHT22;8918;52.092;5.232;2023-04-03T00:15:43;4.60;99.90
17599;DHT22;8918;52.092;5.232;2023-04-03T00:18:09;4.60;99.90
17599;DHT22;8918;52.092;5.232;2023-04-03T00:20:35;4.60;99.90
17599;DHT22;8918;52.092;5.232;2023-04-03T00:23:01;4.50;99.90
17599;DHT22;8918;52.092;5.232;2023-04-03T00:25:27;4.50;99.90
17599;DHT22;8918;52.092;5.232;2023-04-03T00:27:52;4.50;99.90
17599;DHT22;8918;52.092;5.232;2023-04-03T00:30:20;4.50;99.90
17599;DHT22;8918;52.092;5.232;2023-04-03T00:32:50;4.40;99.90
17599;DHT22;8918;52.092;5.232;2023-04-03T00:35:17;4.40;99.90
17599;DHT22;8918;52.092;5.232;2023-04-03T00:37:44;4.40;99.90
17599;DHT22;8918;52.092;5.232;2023-04-03T00:40:12;4.30;99.90
17599;DHT22;8918;52.092;5.232;2023-04-03T00:42:40;4.30;99.90
17599;DHT22;8918;52.092;5.232;2023-04-03T00:47:39;4.20;99.90
17599;DHT22;8918;52.092;5.232;2023-04-03T00:50:06;4.20;99.90
17599;DHT22;8918;52.092;5.232;2023-04-03T00:52:32;4.20;99.90
17599;DHT22;8918;52.092;5.232;2023-04-03T00:55:03;4.20;99.90
17599;DHT22;8918;52.092;5.232;2023-04-03T00:57:30;4.20;99.90
17599;DHT22;8918;52.092;5.232;2023-04-03T01:00:00;4.20;99.90
17599;DHT22;8918;52.092;5.232;2023-04-03T01:02:27;4.20;99.90
17599;DHT22;8918;52.092;5.232;2023-04-03T01:04:52;4.20;99.90
17599;DHT22;8918;52.092;5.232;2023-04-03T01:07:25;4.20;99.90
17599;DHT22;8918;52.092;5.232;2023-04-03T01:09:56;4.10;99.90
17599;DHT22;8918;52.092;5.232;2023-04-03T01:12:35;4.10;99.90
17599;DHT22;8918;52.092;5.232;2023-04-03T01:17:38;4.10;99.90
17599;DHT22;8918;52.092;5.232;2023-04-03T01:28:03;3.90;99.90
17599;DHT22;8918;52.092;5.232;2023-04-03T01:30:48;3.90;99.90
17599;DHT22;8918;52.092;5.232;2023-04-03T01:33:15;3.80;99.90
17599;DHT22;8918;52.092;5.232;2023-04-03T01:35:41;3.80;99.90
17599;DHT22;8918;52.092;5.232;2023-04-03T01:38:06;3.80;99.90
17599;DHT22;8918;52.092;5.232;2023-04-03T01:40:32;3.80;99.90
17599;DHT22;8918;52.092;5.232;2023-04-03T01:42:58;3.70;99.90
17599;DHT22;8918;52.092;5.232;2023-04-03T01:45:23;3.70;99.90
17599;DHT22;8918;52.092;5.232;2023-04-03T01:47:49;3.70;99.90
17599;DHT22;8918;52.092;5.232;2023-04-03T01:50:15;3.70;99.90
17599;DHT22;8918;52.092;5.232;2023-04-03T01:52:41;3.70;99.90
17599;DHT22;8918;52.092;5.232;2023-04-03T01:55:06;3.70;99.90
17599;DHT22;8918;52.092;5.232;2023-04-03T01:57:32;3.60;99.90
17599;DHT22;8918;52.092;5.232;2023-04-03T01:59:58;3.60;99.90
17599;DHT22;8918;52.092;5.232;2023-04-03T02:02:23;3.50;99.90
17599;DHT22;8918;52.092;5.232;2023-04-03T02:04:49;3.50;99.90
17599;DHT22;8918;52.092;5.232;2023-04-03T02:07:14;3.50;99.90
17599;DHT22;8918;52.092;5.232;2023-04-03T02:09:40;3.50;99.90
17599;DHT22;8918;52.092;5.232;2023-04-03T02:12:06;3.40;99.90
17599;DHT22;8918;52.092;5.232;2023-04-03T02:14:31;3.40;99.90
17599;DHT22;8918;52.092;5.232;2023-04-03T02:16:57;3.40;99.90
17599;DHT22;8918;52.092;5.232;2023-04-03T02:19:23;3.30;99.90
17599;DHT22;8918;52.092;5.232;2023-04-03T02:21:48;3.30;99.90
17599;DHT22;8918;52.092;5.232;2023-04-03T02:24:14;3.30;99.90
17599;DHT22;8918;52.092;5.232;2023-04-03T02:26:40;3.30;99.90
17599;DHT22;8918;52.092;5.232;2023-04-03T02:29:05;3.30;99.90
17599;DHT22;8918;52.092;5.232;2023-04-03T02:31:31;3.30;99.90
17599;DHT22;8918;52.092;5.232;2023-04-03T02:33:57;3.20;99.90
17599;DHT22;8918;52.092;5.232;2023-04-03T02:36:22;3.20;99.90
17599;DHT22;8918;52.092;5.232;2023-04-03T02:38:48;3.20;99.90
17599;DHT22;8918;52.092;5.232;2023-04-03T02:41:14;3.20;99.90
17599;DHT22;8918;52.092;5.232;2023-04-03T02:43:40;3.10;99.90
17599;DHT22;8918;52.092;5.232;2023-04-03T02:46:06;3.10;99.90
17599;DHT22;8918;52.092;5.232;2023-04-03T02:48:32;3.00;99.90
17599;DHT22;8918;52.092;5.232;2023-04-03T02:50:58;3.00;99.90
17599;DHT22;8918;52.092;5.232;2023-04-03T02:53:24;3.00;99.90
17599;DHT22;8918;52.092;5.232;2023-04-03T02:55:49;2.90;99.90
17599;DHT22;8918;52.092;5.232;2023-04-03T02:58:15;2.90;99.90
17599;DHT22;8918;52.092;5.232;2023-04-03T03:00:41;2.90;99.90
17599;DHT22;8918;52.092;5.232;2023-04-03T03:03:06;2.90;99.90
17599;DHT22;8918;52.092;5.232;2023-04-03T03:05:33;2.90;99.90
17599;DHT22;8918;52.092;5.232;2023-04-03T03:07:59;2.80;99.90
17599;DHT22;8918;52.092;5.232;2023-04-03T03:10:25;2.80;99.90
17599;DHT22;8918;52.092;5.232;2023-04-03T03:12:50;2.80;99.90
17599;DHT22;8918;52.092;5.232;2023-04-03T03:15:16;2.70;99.90
17599;DHT22;8918;52.092;5.232;2023-04-03T03:17:43;2.70;99.90
17599;DHT22;8918;52.092;5.232;2023-04-03T03:20:09;2.70;99.90
17599;DHT22;8918;52.092;5.232;2023-04-03T03:22:35;2.70;99.90
17599;DHT22;8918;52.092;5.232;2023-04-03T03:25:01;2.70;99.90
17599;DHT22;8918;52.092;5.232;2023-04-03T03:27:27;2.70;99.90
17599;DHT22;8918;52.092;5.232;2023-04-03T03:29:53;2.70;99.90
17599;DHT22;8918;52.092;5.232;2023-04-03T03:32:18;2.70;99.90
17599;DHT22;8918;52.092;5.232;2023-04-03T03:34:44;2.70;99.90
17599;DHT22;8918;52.092;5.232;2023-04-03T03:37:10;2.70;99.90
17599;DHT22;8918;52.092;5.232;2023-04-03T03:39:36;2.60;99.90
17599;DHT22;8918;52.092;5.232;2023-04-03T03:42:01;2.60;99.90
17599;DHT22;8918;52.092;5.232;2023-04-03T03:44:27;2.60;99.90
17599;DHT22;8918;52.092;5.232;2023-04-03T03:46:54;2.60;99.90
17599;DHT22;8918;52.092;5.232;2023-04-03T03:49:20;2.50;99.90
17599;DHT22;8918;52.092;5.232;2023-04-03T03:51:45;2.50;99.90
17599;DHT22;8918;52.092;5.232;2023-04-03T03:54:11;2.50;99.90
17599;DHT22;8918;52.092;5.232;2023-04-03T03:56:37;2.40;99.90
17599;DHT22;8918;52.092;5.232;2023-04-03T03:59:02;2.40;99.90
17599;DHT22;8918;52.092;5.232;2023-04-03T04:01:28;2.40;99.90
17599;DHT22;8918;52.092;5.232;2023-04-03T04:03:54;2.40;99.90
17599;DHT22;8918;52.092;5.232;2023-04-03T04:06:20;2.30;99.90
17599;DHT22;8918;52.092;5.232;2023-04-03T04:08:46;2.30;99.90
17599;DHT22;8918;52.092;5.232;2023-04-03T04:11:12;2.30;99.90
17599;DHT22;8918;52.092;5.232;2023-04-03T04:13:38;2.30;99.90
17599;DHT22;8918;52.092;5.232;2023-04-03T04:16:03;2.30;99.90
17599;DHT22;8918;52.092;5.232;2023-04-03T04:18:29;2.30;99.90
17599;DHT22;8918;52.092;5.232;2023-04-03T04:20:55;2.30;99.90
17599;DHT22;8918;52.092;5.232;2023-04-03T04:23:20;2.30;99.90
17599;DHT22;8918;52.092;5.232;2023-04-03T04:25:47;2.20;99.90
17599;DHT22;8918;52.092;5.232;2023-04-03T04:28:13;2.20;99.90
17599;DHT22;8918;52.092;5.232;2023-04-03T04:30:39;2.20;99.90
17599;DHT22;8918;52.092;5.232;2023-04-03T04:33:05;2.20;99.90
17599;DHT22;8918;52.092;5.232;2023-04-03T04:35:30;2.10;99.90
17599;DHT22;8918;52.092;5.232;2023-04-03T04:37:56;2.10;99.90
17599;DHT22;8918;52.092;5.232;2023-04-03T04:40:22;2.10;99.90
17599;DHT22;8918;52.092;5.232;2023-04-03T04:42:47;2.10;99.90
17599;DHT22;8918;52.092;5.232;2023-04-03T04:45:13;2.00;99.90
17599;DHT22;8918;52.092;5.232;2023-04-03T04:47:40;2.00;99.90
17599;DHT22;8918;52.092;5.232;2023-04-03T04:50:07;2.10;99.90
17599;DHT22;8918;52.092;5.232;2023-04-03T04:52:32;2.10;99.90
17599;DHT22;8918;52.092;5.232;2023-04-03T04:54:58;2.10;99.90
17599;DHT22;8918;52.092;5.232;2023-04-03T04:57:24;2.00;99.90
17599;DHT22;8918;52.092;5.232;2023-04-03T04:59:50;2.00;99.90
17599;DHT22;8918;52.092;5.232;2023-04-03T05:02:15;1.90;99.90
17599;DHT22;8918;52.092;5.232;2023-04-03T05:04:41;2.00;99.90
17599;DHT22;8918;52.092;5.232;2023-04-03T05:07:06;1.90;99.90
17599;DHT22;8918;52.092;5.232;2023-04-03T05:09:32;1.90;99.90
17599;DHT22;8918;52.092;5.232;2023-04-03T05:11:58;1.90;99.90
17599;DHT22;8918;52.092;5.232;2023-04-03T05:14:23;1.90;99.90
17599;DHT22;8918;52.092;5.232;2023-04-03T05:16:49;1.80;99.90
17599;DHT22;8918;52.092;5.232;2023-04-03T05:19:18;1.80;99.90
17599;DHT22;8918;52.092;5.232;2023-04-03T05:21:44;1.90;99.90
17599;DHT22;8918;52.092;5.232;2023-04-03T05:24:10;1.90;99.90
17599;DHT22;8918;52.092;5.232;2023-04-03T05:26:36;1.90;99.90
17599;DHT22;8918;52.092;5.232;2023-04-03T05:29:02;1.90;99.90
17599;DHT22;8918;52.092;5.232;2023-04-03T05:31:27;1.80;99.90
17599;DHT22;8918;52.092;5.232;2023-04-03T05:33:55;1.90;99.90
17599;DHT22;8918;52.092;5.232;2023-04-03T05:36:21;1.90;99.90
17599;DHT22;8918;52.092;5.232;2023-04-03T05:38:47;1.90;99.90
17599;DHT22;8918;52.092;5.232;2023-04-03T05:41:13;1.90;99.90
17599;DHT22;8918;52.092;5.232;2023-04-03T05:43:39;1.90;99.90
17599;DHT22;8918;52.092;5.232;2023-04-03T05:46:13;1.90;99.90
17599;DHT22;8918;52.092;5.232;2023-04-03T05:48:40;1.90;99.90
17599;DHT22;8918;52.092;5.232;2023-04-03T05:51:06;1.90;99.90
17599;DHT22;8918;52.092;5.232;2023-04-03T05:53:35;2.00;99.90
17599;DHT22;8918;52.092;5.232;2023-04-03T05:56:02;2.00;99.90
17599;DHT22;8918;52.092;5.232;2023-04-03T05:58:28;2.00;99.90
17599;DHT22;8918;52.092;5.232;2023-04-03T06:00:54;2.00;99.90
17599;DHT22;8918;52.092;5.232;2023-04-03T06:03:20;2.10;99.90
17599;DHT22;8918;52.092;5.232;2023-04-03T06:05:46;2.10;99.90
17599;DHT22;8918;52.092;5.232;2023-04-03T06:08:11;2.20;99.90
17599;DHT22;8918;52.092;5.232;2023-04-03T06:10:38;2.20;99.90
17599;DHT22;8918;52.092;5.232;2023-04-03T06:13:04;2.20;99.90
17599;DHT22;8918;52.092;5.232;2023-04-03T06:15:29;2.30;99.90
17599;DHT22;8918;52.092;5.232;2023-04-03T06:17:55;2.30;99.90
17599;DHT22;8918;52.092;5.232;2023-04-03T06:20:21;2.40;99.90
17599;DHT22;8918;52.092;5.232;2023-04-03T06:22:47;2.40;99.90
17599;DHT22;8918;52.092;5.232;2023-04-03T06:25:13;2.50;99.90
17599;DHT22;8918;52.092;5.232;2023-04-03T06:27:40;2.60;99.90
17599;DHT22;8918;52.092;5.232;2023-04-03T06:30:06;2.60;99.90
17599;DHT22;8918;52.092;5.232;2023-04-03T06:32:32;2.70;99.90
17599;DHT22;8918;52.092;5.232;2023-04-03T06:34:58;2.70;99.90
17599;DHT22;8918;52.092;5.232;2023-04-03T06:37:24;2.80;99.90
17599;DHT22;8918;52.092;5.232;2023-04-03T06:39:54;2.80;99.90
17599;DHT22;8918;52.092;5.232;2023-04-03T06:42:20;2.80;99.90
17599;DHT22;8918;52.092;5.232;2023-04-03T06:44:46;2.90;99.90
17599;DHT22;8918;52.092;5.232;2023-04-03T06:47:15;3.00;99.90
17599;DHT22;8918;52.092;5.232;2023-04-03T06:49:42;3.00;99.90
17599;DHT22;8918;52.092;5.232;2023-04-03T06:52:08;3.10;99.90
17599;DHT22;8918;52.092;5.232;2023-04-03T06:54:34;3.20;99.90
17599;DHT22;8918;52.092;5.232;2023-04-03T06:57:00;3.30;99.90
17599;DHT22;8918;52.092;5.232;2023-04-03T06:59:26;3.30;99.90
17599;DHT22;8918;52.092;5.232;2023-04-03T07:01:51;3.40;99.90
17599;DHT22;8918;52.092;5.232;2023-04-03T07:04:17;3.50;99.90
17599;DHT22;8918;52.092;5.232;2023-04-03T07:06:43;3.50;99.90
17599;DHT22;8918;52.092;5.232;2023-04-03T07:09:09;3.50;99.90
17599;DHT22;8918;52.092;5.232;2023-04-03T07:11:36;3.60;99.90
17599;DHT22;8918;52.092;5.232;2023-04-03T07:14:02;3.60;99.90
17599;DHT22;8918;52.092;5.232;2023-04-03T07:16:28;3.70;99.90
17599;DHT22;8918;52.092;5.232;2023-04-03T07:18:56;3.90;99.90
17599;DHT22;8918;52.092;5.232;2023-04-03T07:21:22;3.90;99.90
17599;DHT22;8918;52.092;5.232;2023-04-03T07:23:48;3.90;99.90
17599;DHT22;8918;52.092;5.232;2023-04-03T07:26:14;4.00;99.90
17599;DHT22;8918;52.092;5.232;2023-04-03T07:28:40;4.00;99.90
17599;DHT22;8918;52.092;5.232;2023-04-03T07:31:08;4.00;99.90
17599;DHT22;8918;52.092;5.232;2023-04-03T07:33:37;4.10;99.90
17599;DHT22;8918;52.092;5.232;2023-04-03T07:36:03;4.10;99.90
17599;DHT22;8918;52.092;5.232;2023-04-03T07:38:30;4.20;99.90
17599;DHT22;8918;52.092;5.232;2023-04-03T07:40:56;4.30;99.90
17599;DHT22;8918;52.092;5.232;2023-04-03T07:43:22;4.40;99.90
17599;DHT22;8918;52.092;5.232;2023-04-03T07:45:50;4.50;99.90
17599;DHT22;8918;52.092;5.232;2023-04-03T07:48:17;4.50;99.90
17599;DHT22;8918;52.092;5.232;2023-04-03T07:50:43;4.50;99.90
17599;DHT22;8918;52.092;5.232;2023-04-03T07:53:09;4.60;99.90
17599;DHT22;8918;52.092;5.232;2023-04-03T07:55:35;4.60;99.90
17599;DHT22;8918;52.092;5.232;2023-04-03T07:58:11;4.70;99.90
17599;DHT22;8918;52.092;5.232;2023-04-03T08:00:37;4.80;99.90
17599;DHT22;8918;52.092;5.232;2023-04-03T08:03:04;4.90;99.90
17599;DHT22;8918;52.092;5.232;2023-04-03T08:05:30;5.10;99.90
17599;DHT22;8918;52.092;5.232;2023-04-03T08:07:55;5.20;99.90
17599;DHT22;8918;52.092;5.232;2023-04-03T08:10:21;5.30;99.90
17599;DHT22;8918;52.092;5.232;2023-04-03T08:12:47;5.30;99.90
17599;DHT22;8918;52.092;5.232;2023-04-03T08:15:13;5.40;99.90
17599;DHT22;8918;52.092;5.232;2023-04-03T08:17:38;5.50;99.90
17599;DHT22;8918;52.092;5.232;2023-04-03T08:20:06;5.60;99.90
17599;DHT22;8918;52.092;5.232;2023-04-03T08:22:32;5.70;99.90
17599;DHT22;8918;52.092;5.232;2023-04-03T08:24:59;5.70;99.90
17599;DHT22;8918;52.092;5.232;2023-04-03T08:27:25;5.80;99.90
17599;DHT22;8918;52.092;5.232;2023-04-03T08:29:52;5.90;99.90
17599;DHT22;8918;52.092;5.232;2023-04-03T08:32:17;6.00;99.90
17599;DHT22;8918;52.092;5.232;2023-04-03T08:34:44;6.10;99.90
17599;DHT22;8918;52.092;5.232;2023-04-03T08:37:10;6.20;99.90
17599;DHT22;8918;52.092;5.232;2023-04-03T08:39:36;6.30;99.90
17599;DHT22;8918;52.092;5.232;2023-04-03T08:42:07;6.40;99.90
17599;DHT22;8918;52.092;5.232;2023-04-03T08:47:26;6.70;99.90
17599;DHT22;8918;52.092;5.232;2023-04-03T08:49:59;6.80;99.90
17599;DHT22;8918;52.092;5.232;2023-04-03T08:52:45;6.80;99.90
17599;DHT22;8918;52.092;5.232;2023-04-03T08:57:48;6.90;99.90
17599;DHT22;8918;52.092;5.232;2023-04-03T09:00:23;7.10;99.90
17599;DHT22;8918;52.092;5.232;2023-04-03T09:02:51;7.20;99.90
17599;DHT22;8918;52.092;5.232;2023-04-03T09:05:35;7.30;99.90
17599;DHT22;8918;52.092;5.232;2023-04-03T09:08:21;7.30;99.90
17599;DHT22;8918;52.092;5.232;2023-04-03T09:10:49;7.40;99.90
17599;DHT22;8918;52.092;5.232;2023-04-03T09:13:44;7.40;99.90
17599;DHT22;8918;52.092;5.232;2023-04-03T09:21:50;7.70;99.90
17599;DHT22;8918;52.092;5.232;2023-04-03T09:24:17;7.80;99.90
17599;DHT22;8918;52.092;5.232;2023-04-03T09:26:51;7.90;99.90
17599;DHT22;8918;52.092;5.232;2023-04-03T09:29:21;8.00;99.90
17599;DHT22;8918;52.092;5.232;2023-04-03T09:31:49;8.10;99.90
17599;DHT22;8918;52.092;5.232;2023-04-03T09:34:18;8.20;99.90
17599;DHT22;8918;52.092;5.232;2023-04-03T09:36:49;8.40;99.90
17599;DHT22;8918;52.092;5.232;2023-04-03T09:39:28;8.40;99.80
17599;DHT22;8918;52.092;5.232;2023-04-03T09:42:05;8.50;99.50
17599;DHT22;8918;52.092;5.232;2023-04-03T09:44:37;8.70;99.90
17599;DHT22;8918;52.092;5.232;2023-04-03T09:47:38;8.70;99.20
17599;DHT22;8918;52.092;5.232;2023-04-03T09:52:43;9.10;99.90
17599;DHT22;8918;52.092;5.232;2023-04-03T09:55:17;9.30;99.20
17599;DHT22;8918;52.092;5.232;2023-04-03T09:57:45;9.40;98.30
17599;DHT22;8918;52.092;5.232;2023-04-03T10:00:23;9.60;98.10
17599;DHT22;8918;52.092;5.232;2023-04-03T10:02:56;9.70;97.90
17599;DHT22;8918;52.092;5.232;2023-04-03T10:05:41;9.60;98.60
17599;DHT22;8918;52.092;5.232;2023-04-03T10:10:43;9.90;95.60
17599;DHT22;8918;52.092;5.232;2023-04-03T10:13:13;9.80;94.40
17599;DHT22;8918;52.092;5.232;2023-04-03T10:16:02;9.80;94.60
17599;DHT22;8918;52.092;5.232;2023-04-03T10:18:37;9.80;93.10
17599;DHT22;8918;52.092;5.232;2023-04-03T10:23:47;9.80;93.60
17599;DHT22;8918;52.092;5.232;2023-04-03T10:34:50;10.40;94.50
17599;DHT22;8918;52.092;5.232;2023-04-03T10:37:21;10.50;93.60
17599;DHT22;8918;52.092;5.232;2023-04-03T10:39:57;10.70;93.10
17599;DHT22;8918;52.092;5.232;2023-04-03T10:45:24;10.70;91.00
17599;DHT22;8918;52.092;5.232;2023-04-03T10:50:31;11.30;92.20
17599;DHT22;8918;52.092;5.232;2023-04-03T10:58:49;11.80;89.70
17599;DHT22;8918;52.092;5.232;2023-04-03T11:01:20;11.80;83.00
17599;DHT22;8918;52.092;5.232;2023-04-03T11:03:53;11.90;88.10
17599;DHT22;8918;52.092;5.232;2023-04-03T11:06:23;12.00;87.70
17599;DHT22;8918;52.092;5.232;2023-04-03T11:11:27;13.10;83.10
17599;DHT22;8918;52.092;5.232;2023-04-03T11:14:15;14.70;84.90
17599;DHT22;8918;52.092;5.232;2023-04-03T11:16:47;16.30;78.60
17599;DHT22;8918;52.092;5.232;2023-04-03T11:19:22;17.10;74.70
17599;DHT22;8918;52.092;5.232;2023-04-03T11:22:04;17.90;70.70
17599;DHT22;8918;52.092;5.232;2023-04-03T11:24:36;18.00;70.60
17599;DHT22;8918;52.092;5.232;2023-04-03T11:27:04;18.60;68.20
17599;DHT22;8918;52.092;5.232;2023-04-03T11:29:37;19.00;68.00
17599;DHT22;8918;52.092;5.232;2023-04-03T11:32:27;18.90;68.30
17599;DHT22;8918;52.092;5.232;2023-04-03T11:34:57;18.80;69.40
17599;DHT22;8918;52.092;5.232;2023-04-03T11:37:39;19.40;66.20
17599;DHT22;8918;52.092;5.232;2023-04-03T11:42:42;19.20;65.80
17599;DHT22;8918;52.092;5.232;2023-04-03T11:45:25;19.80;66.30
17599;DHT22;8918;52.092;5.232;2023-04-03T11:50:46;20.10;67.80
17599;DHT22;8918;52.092;5.232;2023-04-03T11:58:18;19.80;64.00
17599;DHT22;8918;52.092;5.232;2023-04-03T12:16:30;19.60;61.80
17599;DHT22;8918;52.092;5.232;2023-04-03T12:19:27;19.30;62.90
17599;DHT22;8918;52.092;5.232;2023-04-03T12:24:27;20.30;63.90
17599;DHT22;8918;52.092;5.232;2023-04-03T12:32:20;19.70;61.30
17599;DHT22;8918;52.092;5.232;2023-04-03T12:38:11;19.30;62.20
17599;DHT22;8918;52.092;5.232;2023-04-03T12:46:20;17.30;64.20
17599;DHT22;8918;52.092;5.232;2023-04-03T12:48:58;17.10;67.60
17599;DHT22;8918;52.092;5.232;2023-04-03T12:51:44;17.00;68.10
17599;DHT22;8918;52.092;5.232;2023-04-03T12:54:40;16.80;68.50
17599;DHT22;8918;52.092;5.232;2023-04-03T12:59:41;17.20;67.30
17599;DHT22;8918;52.092;5.232;2023-04-03T13:02:35;17.10;65.30
17599;DHT22;8918;52.092;5.232;2023-04-03T13:05:09;17.00;66.00
17599;DHT22;8918;52.092;5.232;2023-04-03T13:07:37;16.70;67.40
17599;DHT22;8918;52.092;5.232;2023-04-03T13:12:34;16.80;68.80
17599;DHT22;8918;52.092;5.232;2023-04-03T13:15:29;17.30;68.50
17599;DHT22;8918;52.092;5.232;2023-04-03T13:17:56;17.40;67.40
17599;DHT22;8918;52.092;5.232;2023-04-03T13:22:59;16.90;66.50
17599;DHT22;8918;52.092;5.232;2023-04-03T13:25:28;17.00;65.50
17599;DHT22;8918;52.092;5.232;2023-04-03T13:27:55;17.30;67.40
17599;DHT22;8918;52.092;5.232;2023-04-03T13:30:31;17.40;68.60
17599;DHT22;8918;52.092;5.232;2023-04-03T13:33:00;17.20;67.50
17599;DHT22;8918;52.092;5.232;2023-04-03T13:35:39;17.20;68.90
17599;DHT22;8918;52.092;5.232;2023-04-03T13:38:22;17.40;68.60
17599;DHT22;8918;52.092;5.232;2023-04-03T13:41:25;17.10;69.00
17599;DHT22;8918;52.092;5.232;2023-04-03T13:43:51;17.10;68.10
17599;DHT22;8918;52.092;5.232;2023-04-03T13:48:48;17.10;68.10
17599;DHT22;8918;52.092;5.232;2023-04-03T13:53:49;16.80;70.30
17599;DHT22;8918;52.092;5.232;2023-04-03T13:56:36;16.30;68.40
17599;DHT22;8918;52.092;5.232;2023-04-03T13:59:20;15.80;70.90
17599;DHT22;8918;52.092;5.232;2023-04-03T14:01:47;15.40;72.20
17599;DHT22;8918;52.092;5.232;2023-04-03T14:06:46;15.10;74.10
17599;DHT22;8918;52.092;5.232;2023-04-03T14:09:13;14.80;72.80
17599;DHT22;8918;52.092;5.232;2023-04-03T14:11:40;14.40;74.50
17599;DHT22;8918;52.092;5.232;2023-04-03T14:14:13;14.50;73.90
17599;DHT22;8918;52.092;5.232;2023-04-03T14:16:41;14.80;72.40
17599;DHT22;8918;52.092;5.232;2023-04-03T14:19:16;14.80;73.10
17599;DHT22;8918;52.092;5.232;2023-04-03T14:21:42;14.80;72.50
17599;DHT22;8918;52.092;5.232;2023-04-03T14:24:08;15.10;75.10
17599;DHT22;8918;52.092;5.232;2023-04-03T14:26:34;15.40;73.70
17599;DHT22;8918;52.092;5.232;2023-04-03T14:28:59;15.40;74.10
17599;DHT22;8918;52.092;5.232;2023-04-03T14:31:25;15.60;74.10
17599;DHT22;8918;52.092;5.232;2023-04-03T14:33:51;15.40;70.90
17599;DHT22;8918;52.092;5.232;2023-04-03T14:36:24;15.40;71.90
17599;DHT22;8918;52.092;5.232;2023-04-03T14:38:52;15.30;73.10
17599;DHT22;8918;52.092;5.232;2023-04-03T14:41:20;15.40;73.00
17599;DHT22;8918;52.092;5.232;2023-04-03T14:43:47;15.40;71.50
17599;DHT22;8918;52.092;5.232;2023-04-03T14:46:16;15.70;72.10
17599;DHT22;8918;52.092;5.232;2023-04-03T14:48:43;16.10;71.00
17599;DHT22;8918;52.092;5.232;2023-04-03T14:51:13;16.30;71.80
17599;DHT22;8918;52.092;5.232;2023-04-03T14:53:39;16.60;69.80
17599;DHT22;8918;52.092;5.232;2023-04-03T14:56:27;17.00;70.20
17599;DHT22;8918;52.092;5.232;2023-04-03T14:59:00;17.20;69.80
17599;DHT22;8918;52.092;5.232;2023-04-03T15:01:27;17.50;69.70
17599;DHT22;8918;52.092;5.232;2023-04-03T15:03:52;17.30;69.30
17599;DHT22;8918;52.092;5.232;2023-04-03T15:06:18;17.50;71.40
17599;DHT22;8918;52.092;5.232;2023-04-03T15:08:46;17.40;70.00
17599;DHT22;8918;52.092;5.232;2023-04-03T15:11:13;17.60;67.60
17599;DHT22;8918;52.092;5.232;2023-04-03T15:13:39;17.50;69.80
17599;DHT22;8918;52.092;5.232;2023-04-03T15:16:06;17.40;69.00
17599;DHT22;8918;52.092;5.232;2023-04-03T15:18:37;17.60;69.70
17599;DHT22;8918;52.092;5.232;2023-04-03T15:21:03;17.70;68.80
17599;DHT22;8918;52.092;5.232;2023-04-03T15:23:29;17.40;69.90
17599;DHT22;8918;52.092;5.232;2023-04-03T15:25:55;17.20;70.50
17599;DHT22;8918;52.092;5.232;2023-04-03T15:28:33;16.90;70.20
17599;DHT22;8918;52.092;5.232;2023-04-03T15:30:59;16.90;71.60
17599;DHT22;8918;52.092;5.232;2023-04-03T15:33:25;17.30;70.90
17599;DHT22;8918;52.092;5.232;2023-04-03T15:35:51;17.80;70.40
17599;DHT22;8918;52.092;5.232;2023-04-03T15:38:17;17.60;72.40
17599;DHT22;8918;52.092;5.232;2023-04-03T15:40:42;18.00;70.50
17599;DHT22;8918;52.092;5.232;2023-04-03T15:43:09;18.00;70.80
17599;DHT22;8918;52.092;5.232;2023-04-03T15:45:36;18.00;70.60
17599;DHT22;8918;52.092;5.232;2023-04-03T15:48:03;17.80;70.60
17599;DHT22;8918;52.092;5.232;2023-04-03T15:50:31;17.30;69.50
17599;DHT22;8918;52.092;5.232;2023-04-03T15:52:57;17.00;70.30
17599;DHT22;8918;52.092;5.232;2023-04-03T15:55:28;17.00;70.70
17599;DHT22;8918;52.092;5.232;2023-04-03T15:57:54;16.90;71.20
17599;DHT22;8918;52.092;5.232;2023-04-03T16:00:20;16.90;70.90
17599;DHT22;8918;52.092;5.232;2023-04-03T16:02:47;17.00;72.20
17599;DHT22;8918;52.092;5.232;2023-04-03T16:05:15;17.40;71.50
17599;DHT22;8918;52.092;5.232;2023-04-03T16:07:43;17.90;68.60
17599;DHT22;8918;52.092;5.232;2023-04-03T16:10:10;18.20;67.80
17599;DHT22;8918;52.092;5.232;2023-04-03T16:12:36;17.90;67.00
17599;DHT22;8918;52.092;5.232;2023-04-03T16:15:02;18.00;69.00
17599;DHT22;8918;52.092;5.232;2023-04-03T16:17:28;17.70;70.30
17599;DHT22;8918;52.092;5.232;2023-04-03T16:19:55;17.40;69.60
17599;DHT22;8918;52.092;5.232;2023-04-03T16:22:21;17.60;71.20
17599;DHT22;8918;52.092;5.232;2023-04-03T16:24:48;18.10;69.60
17599;DHT22;8918;52.092;5.232;2023-04-03T16:27:15;18.40;67.80
17599;DHT22;8918;52.092;5.232;2023-04-03T16:29:40;18.90;68.80
17599;DHT22;8918;52.092;5.232;2023-04-03T16:32:06;19.30;66.80
17599;DHT22;8918;52.092;5.232;2023-04-03T16:34:32;19.40;67.30
17599;DHT22;8918;52.092;5.232;2023-04-03T16:36:58;19.40;66.60
17599;DHT22;8918;52.092;5.232;2023-04-03T16:39:24;19.30;67.30
17599;DHT22;8918;52.092;5.232;2023-04-03T16:41:49;18.60;69.00
17599;DHT22;8918;52.092;5.232;2023-04-03T16:44:15;18.50;70.50
17599;DHT22;8918;52.092;5.232;2023-04-03T16:46:41;19.00;69.60
17599;DHT22;8918;52.092;5.232;2023-04-03T16:49:06;19.60;68.30
17599;DHT22;8918;52.092;5.232;2023-04-03T16:51:32;19.80;69.00
17599;DHT22;8918;52.092;5.232;2023-04-03T16:53:58;19.50;67.90
17599;DHT22;8918;52.092;5.232;2023-04-03T16:56:24;19.20;69.00
17599;DHT22;8918;52.092;5.232;2023-04-03T16:58:52;18.80;68.80
17599;DHT22;8918;52.092;5.232;2023-04-03T17:01:20;18.30;69.50
17599;DHT22;8918;52.092;5.232;2023-04-03T17:03:46;17.80;70.30
17599;DHT22;8918;52.092;5.232;2023-04-03T17:06:17;17.80;70.80
17599;DHT22;8918;52.092;5.232;2023-04-03T17:08:44;17.70;70.70
17599;DHT22;8918;52.092;5.232;2023-04-03T17:11:10;17.70;71.60
17599;DHT22;8918;52.092;5.232;2023-04-03T17:13:35;17.00;71.80
17599;DHT22;8918;52.092;5.232;2023-04-03T17:19:32;15.30;75.00
17599;DHT22;8918;52.092;5.232;2023-04-03T17:21:58;14.00;78.30
17599;DHT22;8918;52.092;5.232;2023-04-03T17:24:24;13.30;79.30
17599;DHT22;8918;52.092;5.232;2023-04-03T17:26:50;12.90;80.60
17599;DHT22;8918;52.092;5.232;2023-04-03T17:29:15;12.50;81.60
17599;DHT22;8918;52.092;5.232;2023-04-03T17:31:41;12.10;82.60
17599;DHT22;8918;52.092;5.232;2023-04-03T17:34:07;11.80;82.50
17599;DHT22;8918;52.092;5.232;2023-04-03T17:36:33;11.40;83.50
17599;DHT22;8918;52.092;5.232;2023-04-03T17:38:59;11.20;85.70
17599;DHT22;8918;52.092;5.232;2023-04-03T17:41:25;11.10;86.20
17599;DHT22;8918;52.092;5.232;2023-04-03T17:43:51;11.00;85.80
17599;DHT22;8918;52.092;5.232;2023-04-03T17:46:20;11.00;86.60
17599;DHT22;8918;52.092;5.232;2023-04-03T17:48:46;10.80;87.50
17599;DHT22;8918;52.092;5.232;2023-04-03T17:51:15;10.70;86.90
17599;DHT22;8918;52.092;5.232;2023-04-03T17:53:41;10.60;87.80
17599;DHT22;8918;52.092;5.232;2023-04-03T17:56:18;10.40;88.70
17599;DHT22;8918;52.092;5.232;2023-04-03T17:58:44;10.30;89.10